Centenario Blu — 3FXD7 — position and weather

sailwx.info

Track history (hours):
 
Tides and Currents Weather Stations Pressure Air Temp Water Temp Dewpoint Dewpoint Depression Visibility Wind Speed Wind Dir Waves Ship Positions

Centenario Blu

Last reported at 2015-Mar-24 14:21 UTC. Time now 2015-Mar-27 08:16 UTC.
Position S 35°23' E 137°18'.

Length 190 m; draft 12.6 m.

Type: Cargo ship. MMSI: 356832000.

Date/timePositionNaut miles runAvg speedWind from/ knotsBaromVisibWave heightAir tempDewpointWater temp
2015-Mar-24 14:21S 35°23' E 137°18'1111.7
2015-Mar-24 13:26S 35°20' E 137°30'1212.1
2015-Mar-24 12:27S 35°17' E 137°44'1111.7
2015-Mar-24 11:32S 35°11' E 137°56'1111.5
2015-Mar-24 10:33S 35°00' E 137°56'8 6.9
2015-Mar-24 09:20S 35°01' E 137°46'0 0.0
2015-Mar-24 08:05S 35°01' E 137°46'0 0.0
2015-Mar-24 07:23S 35°01' E 137°46'0 0.0
2015-Mar-24 05:21S 35°01' E 137°46'0 0.0
2015-Mar-24 04:14S 35°01' E 137°46'0 0.0
2015-Mar-24 01:05S 35°01' E 137°46'0 0.0
2015-Mar-24 00:11S 35°01' E 137°46'0 0.0
2015-Mar-23 23:17S 35°01' E 137°46'0 0.0
2015-Mar-23 22:15S 35°01' E 137°46'0 0.0
2015-Mar-23 21:32S 35°01' E 137°46'0 0.0
2015-Mar-23 20:32S 35°01' E 137°46'0 0.0
2015-Mar-23 19:32S 35°01' E 137°46'0 0.0
2015-Mar-23 18:32S 35°01' E 137°46'0 0.0
2015-Mar-23 17:23S 35°01' E 137°46'0 0.0
2015-Mar-23 16:20S 35°01' E 137°46'0 0.0
2015-Mar-23 15:32S 35°01' E 137°46'0 0.0
2015-Mar-23 14:32S 35°01' E 137°46'0 0.0
2015-Mar-23 12:11S 35°01' E 137°46'0 0.0
2015-Mar-23 11:23S 35°01' E 137°46'0 0.0
2015-Mar-23 10:05S 35°01' E 137°46'0 0.0
2015-Mar-23 09:32S 35°01' E 137°46'0 0.0
2015-Mar-23 08:23S 35°01' E 137°46'0 0.0
2015-Mar-23 07:32S 35°01' E 137°46'0 0.0
2015-Mar-23 06:23S 35°01' E 137°46'0 0.0
2015-Mar-23 05:32S 35°01' E 137°46'0 0.0
2015-Mar-23 04:29S 35°01' E 137°46'0 0.0
2015-Mar-23 03:29S 35°01' E 137°46'0 0.0
2015-Mar-23 02:32S 35°01' E 137°46'0 0.0
2015-Mar-23 01:32S 35°01' E 137°46'0 0.1
2015-Mar-23 00:32S 35°01' E 137°46'3 1.3
2015-Mar-22 22:23S 35°02' E 137°50'0 0.1
2015-Mar-22 21:32S 35°02' E 137°50'0 0.0
2015-Mar-22 17:14S 35°02' E 137°50'0 0.0
2015-Mar-22 15:32S 35°02' E 137°50'0 0.1
2015-Mar-22 14:17S 35°02' E 137°49'0 0.1
2015-Mar-22 13:29S 35°02' E 137°49'0 0.0
2015-Mar-22 12:32S 35°02' E 137°49'0 0.0
2015-Mar-22 11:32S 35°02' E 137°49'0 0.0
2015-Mar-22 10:32S 35°02' E 137°49'0 0.0
2015-Mar-22 09:32S 35°02' E 137°49'0 0.0
2015-Mar-22 06:08S 35°02' E 137°49'0 0.0
2015-Mar-22 05:29S 35°02' E 137°49'0 0.0
2015-Mar-22 04:32S 35°02' E 137°49'0 0.0
2015-Mar-22 03:32S 35°02' E 137°49'0 0.0
2015-Mar-22 02:32S 35°02' E 137°49'0 0.1
2015-Mar-22 01:32S 35°02' E 137°49'0 0.0
2015-Mar-22 00:29S 35°02' E 137°49'0 0.0
2015-Mar-21 23:32S 35°02' E 137°49'0 0.0
2015-Mar-21 22:32S 35°02' E 137°49'0 0.0
2015-Mar-21 21:32S 35°02' E 137°49'2 0.2
2015-Mar-21 10:34S 35°02' E 137°52'7 7.2
2015-Mar-21 09:33S 35°08' E 137°57'1111.4
2015-Mar-21 08:33S 35°14' E 137°45'1212.3
2015-Mar-21 07:33S 35°17' E 137°31'1312.6
2015-Mar-21 06:33S 35°20' E 137°16'  
2015-Mar-16 16:26S 33°55' E 137°30'0 0.0
2015-Mar-16 14:20S 33°55' E 137°30'0 0.0
2015-Mar-16 13:32S 33°55' E 137°30'1 0.0
2015-Mar-15 21:29S 33°55' E 137°30'9 9.5
2015-Mar-15 20:33S 33°57' E 137°19'1313.3
2015-Mar-15 19:33S 34°07' E 137°10'1413.8
2015-Mar-15 18:32S 34°21' E 137°04'1413.9
2015-Mar-15 17:32S 34°34' E 136°59'1414.0
2015-Mar-15 16:33S 34°47' E 136°54'1414.0
2015-Mar-15 15:33S 35°00' E 136°49'1414.1
2015-Mar-15 14:34S 35°13' E 136°41'1312.7
2015-Mar-15 13:33S 35°19' E 136°27'1313.4
2015-Mar-15 12:33S 35°23' E 136°11'1313.4
2015-Mar-15 11:33S 35°27' E 135°56'  
Track history (hours):
 
Tides and Currents Weather Stations Pressure Air Temp Water Temp Dewpoint Dewpoint Depression Visibility Wind Speed Wind Dir Waves Ship Positions

Centenario Blu

Last reported at 2015-Mar-24 14:21 UTC. Time now 2015-Mar-27 08:16 UTC.
Position S 35°23' E 137°18'.

Length 190 m; draft 12.6 m.

Type: Cargo ship. MMSI: 356832000.

Date/timePositionNaut miles runAvg speedWind from/ knotsBaromVisibWave heightAir tempDewpointWater temp
2015-Mar-24 14:21S 35°23' E 137°18'1111.7
2015-Mar-24 13:26S 35°20' E 137°30'1212.1
2015-Mar-24 12:27S 35°17' E 137°44'1111.7
2015-Mar-24 11:32S 35°11' E 137°56'1111.5
2015-Mar-24 10:33S 35°00' E 137°56'8 6.9
2015-Mar-24 09:20S 35°01' E 137°46'0 0.0
2015-Mar-24 08:05S 35°01' E 137°46'0 0.0
2015-Mar-24 07:23S 35°01' E 137°46'0 0.0
2015-Mar-24 05:21S 35°01' E 137°46'0 0.0
2015-Mar-24 04:14S 35°01' E 137°46'0 0.0
2015-Mar-24 01:05S 35°01' E 137°46'0 0.0
2015-Mar-24 00:11S 35°01' E 137°46'0 0.0
2015-Mar-23 23:17S 35°01' E 137°46'0 0.0
2015-Mar-23 22:15S 35°01' E 137°46'0 0.0
2015-Mar-23 21:32S 35°01' E 137°46'0 0.0
2015-Mar-23 20:32S 35°01' E 137°46'0 0.0
2015-Mar-23 19:32S 35°01' E 137°46'0 0.0
2015-Mar-23 18:32S 35°01' E 137°46'0 0.0
2015-Mar-23 17:23S 35°01' E 137°46'0 0.0
2015-Mar-23 16:20S 35°01' E 137°46'0 0.0
2015-Mar-23 15:32S 35°01' E 137°46'0 0.0
2015-Mar-23 14:32S 35°01' E 137°46'0 0.0
2015-Mar-23 12:11S 35°01' E 137°46'0 0.0
2015-Mar-23 11:23S 35°01' E 137°46'0 0.0
2015-Mar-23 10:05S 35°01' E 137°46'0 0.0
2015-Mar-23 09:32S 35°01' E 137°46'0 0.0
2015-Mar-23 08:23S 35°01' E 137°46'0 0.0
2015-Mar-23 07:32S 35°01' E 137°46'0 0.0
2015-Mar-23 06:23S 35°01' E 137°46'0 0.0
2015-Mar-23 05:32S 35°01' E 137°46'0 0.0
2015-Mar-23 04:29S 35°01' E 137°46'0 0.0
2015-Mar-23 03:29S 35°01' E 137°46'0 0.0
2015-Mar-23 02:32S 35°01' E 137°46'0 0.0
2015-Mar-23 01:32S 35°01' E 137°46'0 0.1
2015-Mar-23 00:32S 35°01' E 137°46'3 1.3
2015-Mar-22 22:23S 35°02' E 137°50'0 0.1
2015-Mar-22 21:32S 35°02' E 137°50'0 0.0
2015-Mar-22 17:14S 35°02' E 137°50'0 0.0
2015-Mar-22 15:32S 35°02' E 137°50'0 0.1
2015-Mar-22 14:17S 35°02' E 137°49'0 0.1
2015-Mar-22 13:29S 35°02' E 137°49'0 0.0
2015-Mar-22 12:32S 35°02' E 137°49'0 0.0
2015-Mar-22 11:32S 35°02' E 137°49'0 0.0
2015-Mar-22 10:32S 35°02' E 137°49'0 0.0
2015-Mar-22 09:32S 35°02' E 137°49'0 0.0
2015-Mar-22 06:08S 35°02' E 137°49'0 0.0
2015-Mar-22 05:29S 35°02' E 137°49'0 0.0
2015-Mar-22 04:32S 35°02' E 137°49'0 0.0
2015-Mar-22 03:32S 35°02' E 137°49'0 0.0
2015-Mar-22 02:32S 35°02' E 137°49'0 0.1
2015-Mar-22 01:32S 35°02' E 137°49'0 0.0
2015-Mar-22 00:29S 35°02' E 137°49'0 0.0
2015-Mar-21 23:32S 35°02' E 137°49'0 0.0
2015-Mar-21 22:32S 35°02' E 137°49'0 0.0
2015-Mar-21 21:32S 35°02' E 137°49'2 0.2
2015-Mar-21 10:34S 35°02' E 137°52'7 7.2
2015-Mar-21 09:33S 35°08' E 137°57'1111.4
2015-Mar-21 08:33S 35°14' E 137°45'1212.3
2015-Mar-21 07:33S 35°17' E 137°31'1312.6
2015-Mar-21 06:33S 35°20' E 137°16'  
2015-Mar-16 16:26S 33°55' E 137°30'0 0.0
2015-Mar-16 14:20S 33°55' E 137°30'0 0.0
2015-Mar-16 13:32S 33°55' E 137°30'1 0.0
2015-Mar-15 21:29S 33°55' E 137°30'9 9.5
2015-Mar-15 20:33S 33°57' E 137°19'1313.3
2015-Mar-15 19:33S 34°07' E 137°10'1413.8
2015-Mar-15 18:32S 34°21' E 137°04'1413.9
2015-Mar-15 17:32S 34°34' E 136°59'1414.0
2015-Mar-15 16:33S 34°47' E 136°54'1414.0
2015-Mar-15 15:33S 35°00' E 136°49'1414.1
2015-Mar-15 14:34S 35°13' E 136°41'1312.7
2015-Mar-15 13:33S 35°19' E 136°27'1313.4
2015-Mar-15 12:33S 35°23' E 136°11'1313.4
2015-Mar-15 11:33S 35°27' E 135°56'  

Dump ship's entire track history